Time;durP1;ratioP1;P1;durP2;ratioP2;P2;SDS_P1;SDS_P2;PMS_P1;PMS_P2;Temp;Humidity;BMP_temperature;BMP_pressure;BME280_temperature;BME280_humidity;BME280_pressure;Samples;Min_cycle;Max_cycle;Signal;HPM_P1;HPM_P2
2021/08/23 00:00:21;;;;;;;5.47;1.52;;;17.20;99.90;;;16.02;86.36;101775.94;5031154;28;20112;-76
2021/08/23 00:02:47;;;;;;;7.07;1.65;;;17.20;99.90;;;16.03;86.56;101777.69;5048586;28;20036;-76
2021/08/23 00:05:13;;;;;;;6.35;2.10;;;17.10;99.90;;;16.09;85.89;101782.66;5030460;28;20056;-76
2021/08/23 00:07:39;;;;;;;5.88;1.70;;;17.10;99.90;;;15.98;85.57;101763.75;5030424;28;20032;-76
2021/08/23 00:10:06;;;;;;;6.75;1.20;;;17.10;99.90;;;15.94;85.74;101778.16;5014197;28;20489;-76
2021/08/23 00:12:32;;;;;;;3.95;1.15;;;17.00;99.90;;;15.94;85.33;101779.03;5031292;28;20045;-75
2021/08/23 00:14:58;;;;;;;4.88;1.20;;;17.00;99.90;;;15.90;85.64;101773.94;5014823;28;20043;-76
2021/08/23 00:17:24;;;;;;;3.92;1.17;;;17.00;99.90;;;15.89;85.77;101777.53;5030277;28;20110;-75
2021/08/23 00:19:50;;;;;;;4.22;1.58;;;16.90;99.90;;;15.87;85.54;101785.56;5034014;28;20098;-76
2021/08/23 00:22:51;;;;;;;7.03;1.83;;;16.90;99.90;;;15.68;85.75;101761.75;5011961;28;20037;-75
2021/08/23 00:25:09;;;;;;;6.18;1.40;;;16.70;99.90;;;15.65;86.68;101775.16;5025913;28;20473;-76
2021/08/23 00:27:35;;;;;;;4.68;1.45;;;16.70;99.90;;;15.54;86.78;101751.81;5030017;28;20033;-76
2021/08/23 00:30:03;;;;;;;7.47;1.50;;;16.60;99.90;;;15.47;86.42;101750.44;5030330;28;20113;-76
2021/08/23 00:32:29;;;;;;;4.40;1.30;;;16.60;99.90;;;15.41;87.01;101749.88;5014366;28;20045;-76
2021/08/23 00:34:57;;;;;;;8.60;1.52;;;16.60;99.90;;;15.44;86.99;101749.72;5011675;28;20025;-76
2021/08/23 00:37:23;;;;;;;4.70;1.75;;;16.50;99.90;;;15.33;86.71;101753.78;5033186;28;20021;-76
2021/08/23 00:39:49;;;;;;;5.88;1.58;;;16.50;99.90;;;15.28;87.26;101749.66;5030216;28;20037;-76
2021/08/23 00:42:16;;;;;;;4.35;1.50;;;16.40;99.90;;;15.25;87.26;101748.00;5031091;28;20107;-76
2021/08/23 00:44:42;;;;;;;2.50;1.33;;;16.40;99.90;;;15.33;86.47;101752.91;5029292;28;20029;-76
2021/08/23 00:47:09;;;;;;;2.75;1.40;;;16.40;99.90;;;15.26;86.99;101751.50;5029142;28;20138;-76
2021/08/23 00:49:36;;;;;;;8.30;1.30;;;16.40;99.90;;;15.21;86.50;101753.56;5013570;28;20472;-76
2021/08/23 00:52:08;;;;;;;4.25;1.30;;;16.30;99.90;;;15.12;86.90;101749.56;5013574;28;20027;-76
2021/08/23 00:54:36;;;;;;;2.83;1.40;;;16.30;99.90;;;15.08;86.28;101748.00;5030823;28;20025;-76
2021/08/23 00:57:04;;;;;;;2.70;1.33;;;16.20;99.90;;;15.13;85.91;101756.56;5034795;28;20037;-76
2021/08/23 00:59:37;;;;;;;3.53;1.40;;;16.30;99.90;;;15.12;85.41;101755.72;5031047;28;20433;-76
2021/08/23 01:02:25;;;;;;;4.70;1.48;;;16.20;99.90;;;15.08;85.05;101748.00;5013881;28;20033;-76
2021/08/23 01:05:09;;;;;;;3.15;1.48;;;16.20;99.90;;;15.06;85.22;101745.41;5032870;28;20036;-76
2021/08/23 01:07:59;;;;;;;3.38;1.40;;;16.20;99.90;;;15.22;84.31;101764.06;5027768;28;20465;-75
2021/08/23 01:10:48;;;;;;;3.95;1.10;;;16.20;99.90;;;15.04;84.38;101741.13;5060561;28;20029;-76
2021/08/23 01:13:14;;;;;;;3.53;1.17;;;16.10;99.90;;;14.95;84.25;101735.31;5028780;28;20028;-75
2021/08/23 01:15:41;;;;;;;3.92;1.60;;;16.10;99.90;;;14.94;84.07;101741.53;5029786;28;20041;-76
2021/08/23 01:18:07;;;;;;;5.05;1.50;;;16.10;99.90;;;14.91;83.89;101744.34;5028861;28;20523;-75
2021/08/23 01:20:36;;;;;;;3.70;1.20;;;16.00;99.90;;;14.83;84.20;101733.25;5031366;28;20029;-76
2021/08/23 01:23:03;;;;;;;3.22;1.40;;;16.00;99.90;;;14.81;84.07;101739.56;5028560;28;20435;-76
2021/08/23 01:25:33;;;;;;;2.97;1.02;;;15.90;99.90;;;14.81;84.67;101742.22;5029945;28;20049;-75
2021/08/23 01:28:15;;;;;;;5.00;1.30;;;15.90;99.90;;;14.64;84.73;101722.66;5011008;28;20380;-76
2021/08/23 01:31:02;;;;;;;3.33;1.20;;;15.80;99.90;;;14.56;85.07;101724.84;5059956;28;20048;-76
2021/08/23 01:33:30;;;;;;;2.45;1.38;;;15.70;99.90;;;14.59;84.34;101727.34;5026499;28;20040;-76
2021/08/23 01:35:58;;;;;;;6.20;1.27;;;15.70;99.90;;;14.49;84.35;101726.91;5029875;28;20020;-76
2021/08/23 01:38:24;;;;;;;2.38;0.90;;;15.60;99.90;;;14.50;83.94;101733.06;5020810;28;20079;-75
2021/08/23 01:41:01;;;;;;;4.78;0.80;;;15.60;99.90;;;14.45;83.45;101721.78;5018311;28;20037;-76
2021/08/23 01:43:28;;;;;;;5.20;1.20;;;15.50;99.90;;;14.36;83.19;101720.44;5022467;28;20025;-76
2021/08/23 01:45:54;;;;;;;2.95;1.27;;;15.50;99.90;;;14.29;83.17;101725.16;5051429;28;20053;-75
2021/08/23 01:48:20;;;;;;;3.80;1.10;;;15.40;99.90;;;14.23;82.77;101712.19;5014909;28;20029;-76
2021/08/23 01:50:47;;;;;;;4.95;1.00;;;15.40;99.90;;;14.30;81.75;101715.44;5018435;28;20037;-76
2021/08/23 01:53:16;;;;;;;1.88;0.90;;;15.40;99.90;;;14.13;82.58;101702.97;5030711;28;20443;-76
2021/08/23 01:55:46;;;;;;;2.35;1.05;;;15.30;99.90;;;14.09;81.93;101709.34;5034049;28;20060;-75
2021/08/23 01:58:13;;;;;;;4.05;1.10;;;15.30;99.90;;;14.15;81.06;101715.22;5031832;28;20028;-75
2021/08/23 02:00:39;;;;;;;2.17;1.00;;;15.30;99.90;;;14.09;80.88;101720.78;5035117;28;20032;-75
2021/08/23 02:03:05;;;;;;;1.95;0.80;;;15.30;99.90;;;14.09;80.95;101726.09;5013548;28;20567;-76
2021/08/23 02:05:31;;;;;;;4.30;1.05;;;15.20;99.90;;;13.84;83.17;101699.00;5017221;28;20037;-76
2021/08/23 02:07:58;;;;;;;5.00;1.50;;;15.00;99.90;;;13.62;84.76;101678.75;5033050;28;20067;-76
2021/08/23 02:10:26;;;;;;;4.95;1.08;;;14.90;99.90;;;13.51;85.90;101684.53;5033002;28;20397;-76
2021/08/23 02:12:53;;;;;;;4.53;1.30;;;14.80;99.90;;;13.45;87.06;101691.88;5015833;28;20037;-76
2021/08/23 02:15:19;;;;;;;5.85;1.42;;;14.70;99.90;;;13.41;88.19;101699.09;5032965;28;20017;-76
2021/08/23 02:17:45;;;;;;;5.90;1.20;;;14.70;99.90;;;13.29;89.29;101687.25;5017269;28;20056;-76
2021/08/23 02:20:13;;;;;;;6.25;1.27;;;14.50;99.90;;;13.26;89.68;101692.66;5032117;28;20381;-76
2021/08/23 02:22:43;;;;;;;2.38;0.93;;;14.50;99.90;;;13.26;89.91;101695.28;5015880;28;20048;-75
2021/08/23 02:25:10;;;;;;;6.65;1.02;;;14.50;99.90;;;13.28;89.71;101695.22;5032687;28;20449;-76
2021/08/23 02:27:36;;;;;;;4.47;1.23;;;14.50;99.90;;;13.43;88.82;101712.25;5025291;28;20401;-76
2021/08/23 02:30:04;;;;;;;3.97;1.05;;;14.60;99.90;;;13.49;88.37;101722.56;5029985;28;20124;-76
2021/08/23 02:32:30;;;;;;;4.45;1.27;;;;;;;13.59;88.15;101728.34;5033574;28;20029;-75
2021/08/23 02:34:56;;;;;;;4.70;1.10;;;14.80;99.90;;;13.58;87.54;101727.47;5034163;28;20037;-76
2021/08/23 02:37:22;;;;;;;5.30;1.27;;;14.80;99.90;;;13.71;86.69;101736.59;5033875;28;20480;-76
2021/08/23 02:39:48;;;;;;;4.53;1.25;;;14.80;99.90;;;13.60;87.21;101730.91;5031006;28;20035;-76
2021/08/23 02:42:14;;;;;;;8.48;1.30;;;14.80;99.90;;;13.70;86.88;101745.47;5017766;28;20017;-75
2021/08/23 02:44:40;;;;;;;6.45;1.30;;;14.90;99.90;;;13.62;87.30;101725.56;5031300;28;20071;-75
2021/08/23 02:47:06;;;;;;;2.72;1.02;;;14.80;99.90;;;13.68;87.24;101757.03;5032547;28;20021;-76
2021/08/23 02:49:32;;;;;;;2.13;1.08;;;14.80;99.90;;;13.66;87.44;101749.16;5013614;28;20071;-76
2021/08/23 02:51:58;;;;;;;3.38;1.00;;;14.80;99.90;;;13.64;88.05;101740.44;5015264;28;20090;-76
2021/08/23 02:54:25;;;;;;;3.40;1.00;;;14.90;99.90;;;13.94;86.22;101769.13;5024291;28;20045;-75
2021/08/23 02:56:51;;;;;;;6.63;1.15;;;15.10;99.90;;;14.01;85.87;101780.31;5032797;28;20385;-76
2021/08/23 02:59:17;;;;;;;7.85;1.20;;;15.10;99.90;;;13.91;85.93;101861.97;5013690;28;20029;-76
2021/08/23 03:01:43;;;;;;;4.65;1.05;;;15.00;99.90;;;13.86;86.44;101855.97;5049018;28;20504;-76
2021/08/23 03:04:09;;;;;;;3.17;1.27;;;14.90;99.90;;;13.62;87.85;101826.13;5031538;28;20041;-76
2021/08/23 03:06:35;;;;;;;6.53;1.08;;;14.80;99.90;;;13.43;88.72;101807.50;5032741;28;20071;-75
2021/08/23 03:09:01;;;;;;;2.53;1.08;;;14.70;99.90;;;13.30;89.79;101793.91;5030166;28;20025;-76
2021/08/23 03:11:27;;;;;;;2.25;1.00;;;14.50;99.90;;;13.14;91.41;101786.56;5032519;28;20408;-75
2021/08/23 03:13:53;;;;;;;4.05;1.30;;;14.40;99.90;;;13.03;92.25;101774.72;5029386;28;20032;-76
2021/08/23 03:16:19;;;;;;;4.63;1.25;;;14.40;99.90;;;13.30;92.83;101808.00;5031735;28;20397;-75
2021/08/23 03:18:45;;;;;;;6.63;1.48;;;14.50;99.90;;;13.38;92.25;101812.13;5031780;28;20040;-75
2021/08/23 03:21:11;;;;;;;8.77;1.48;;;14.50;99.90;;;13.27;93.11;101808.09;5031561;28;20136;-75
2021/08/23 03:23:37;;;;;;;2.88;1.20;;;14.50;99.90;;;13.31;93.19;101812.38;5015848;28;20030;-76
2021/08/23 03:26:05;;;;;;;6.85;1.40;;;14.50;99.90;;;13.24;94.26;101802.06;5031180;28;20025;-76
2021/08/23 03:28:31;;;;;;;5.57;1.30;;;14.40;99.90;;;13.16;94.82;101796.25;5032287;28;20476;-76
2021/08/23 03:30:57;;;;;;;4.05;1.20;;;14.40;99.90;;;13.05;95.21;101796.66;5032095;28;20489;-76
2021/08/23 03:33:23;;;;;;;3.72;1.40;;;14.30;99.90;;;13.00;96.19;101795.97;5029810;28;20493;-75
2021/08/23 03:35:50;;;;;;;4.22;1.30;;;14.30;99.90;;;12.97;97.71;101796.09;5046818;28;20021;-76
2021/08/23 03:38:16;;;;;;;6.82;1.60;;;14.20;99.90;;;12.96;98.75;101799.66;5014326;28;20013;-76
2021/08/23 03:40:42;;;;;;;7.95;1.63;;;14.30;99.90;;;13.07;98.68;101816.81;5031637;28;20039;-76
2021/08/23 03:43:08;;;;;;;4.65;1.52;;;14.20;99.90;;;12.97;99.04;101900.06;5030310;28;20024;-76
2021/08/23 03:45:34;;;;;;;6.25;1.63;;;14.30;99.90;;;13.23;97.58;101999.56;5031966;28;20435;-75
2021/08/23 03:48:01;;;;;;;7.20;1.65;;;14.60;99.90;;;13.60;94.43;102006.13;5031080;28;20037;-76
2021/08/23 03:50:27;;;;;;;4.47;1.30;;;14.70;99.90;;;13.62;93.04;101987.53;5014706;28;20515;-76
2021/08/23 03:52:53;;;;;;;4.88;1.30;;;14.70;99.90;;;13.57;92.39;101974.50;5015671;28;20037;-75
2021/08/23 03:55:19;;;;;;;7.25;1.42;;;14.70;99.90;;;13.59;91.17;101959.44;5032488;28;20469;-76
2021/08/23 03:57:45;;;;;;;2.70;0.95;;;14.70;99.90;;;13.50;91.62;101946.56;5022895;28;20468;-76
2021/08/23 04:00:11;;;;;;;2.08;1.10;;;14.70;99.90;;;13.41;91.56;101937.22;5013691;28;20055;-76
2021/08/23 04:02:39;;;;;;;5.18;1.30;;;14.60;99.90;;;13.29;92.22;101933.25;5015185;28;20395;-75
2021/08/23 04:05:06;;;;;;;7.22;1.60;;;14.50;99.90;;;13.22;92.51;101933.53;5030439;28;20044;-76
2021/08/23 04:07:32;;;;;;;2.00;1.15;;;14.50;99.90;;;13.37;92.16;101945.28;5030289;28;20079;-76
2021/08/23 04:09:59;;;;;;;9.63;1.70;;;14.50;99.90;;;13.25;92.31;101928.94;5015105;28;20036;-75
2021/08/23 04:12:25;;;;;;;5.40;1.50;;;14.50;99.90;;;13.36;91.69;101938.28;5013179;28;20025;-76
2021/08/23 04:14:51;;;;;;;4.20;1.30;;;14.50;99.90;;;13.43;91.37;101937.97;5014444;28;20025;-76
2021/08/23 04:17:17;;;;;;;4.93;1.33;;;14.50;99.90;;;13.34;91.63;101927.75;5030665;28;20022;-76
2021/08/23 04:19:43;;;;;;;9.35;1.40;;;14.50;99.90;;;13.26;91.85;101919.22;5031216;28;20104;-76
2021/08/23 04:22:11;;;;;;;4.45;1.35;;;14.50;99.90;;;13.19;92.03;101915.97;5031061;28;20033;-76
2021/08/23 04:24:40;;;;;;;3.67;1.35;;;14.40;99.90;;;13.21;92.03;101916.75;5012768;28;20022;-76
2021/08/23 04:27:06;;;;;;;3.25;1.40;;;14.50;99.90;;;13.29;91.07;101924.44;5030580;28;20423;-74
2021/08/23 04:29:33;;;;;;;7.70;1.40;;;14.50;99.90;;;13.51;89.69;101948.28;5013277;28;20079;-76
2021/08/23 04:31:59;;;;;;;1.90;0.98;;;14.70;99.90;;;13.66;87.54;101962.69;5038377;28;20036;-76
2021/08/23 04:34:25;;;;;;;7.40;1.20;;;14.80;99.90;;;13.85;85.73;101978.69;5005135;28;20025;-76
2021/08/23 04:36:51;;;;;;;3.45;1.20;;;15.00;99.90;;;13.91;84.28;101981.09;5031332;28;20033;-75
2021/08/23 04:39:17;;;;;;;3.75;1.17;;;15.00;99.90;;;13.89;83.88;101970.56;5012952;28;20056;-76
2021/08/23 04:41:43;;;;;;;2.65;1.00;;;15.10;99.90;;;14.05;81.99;101985.81;5014107;28;20029;-76
2021/08/23 04:44:10;;;;;;;1.38;0.70;;;15.20;99.90;;;14.06;80.68;101984.88;5031041;28;20029;-75
2021/08/23 04:46:37;;;;;;;4.47;1.00;;;15.20;99.90;;;14.15;78.46;101990.69;5029434;28;20465;-76
2021/08/23 04:49:04;;;;;;;3.35;1.40;;;15.40;99.90;;;14.42;77.18;102014.28;5047278;28;20039;-75
2021/08/23 04:51:30;;;;;;;8.55;1.30;;;16.00;99.90;;;15.33;73.87;102088.16;5020735;28;20560;-75
2021/08/23 04:53:56;;;;;;;3.63;1.00;;;16.90;99.90;;;16.08;71.29;102125.47;5031060;28;20423;-76
2021/08/23 04:56:22;;;;;;;6.30;1.23;;;17.80;99.90;;;16.72;67.87;102164.03;5010980;28;20029;-75
2021/08/23 04:58:48;;;;;;;1.98;1.00;;;18.30;99.90;;;16.80;66.31;102135.25;5014668;28;20029;-76
2021/08/23 05:01:14;;;;;;;2.25;0.95;;;18.60;99.90;;;16.89;64.38;102132.16;5027990;28;20025;-76
2021/08/23 05:03:41;;;;;;;3.92;1.08;;;19.00;99.90;;;17.87;62.98;102222.03;5013892;28;20033;-76
2021/08/23 05:06:06;;;;;;;1.92;0.95;;;19.40;99.90;;;18.01;61.68;102205.28;5009824;28;20067;-75
2021/08/23 05:08:32;;;;;;;3.80;1.00;;;19.80;99.90;;;18.24;60.31;102207.53;5030458;28;20382;-76
2021/08/23 05:10:59;;;;;;;4.20;0.88;;;20.10;99.90;;;18.54;59.96;102221.94;5012452;28;20515;-76
2021/08/23 05:13:25;;;;;;;1.60;0.85;;;20.10;99.90;;;18.60;60.12;102214.44;5062065;28;20108;-76
2021/08/23 05:15:51;;;;;;;4.60;1.13;;;20.70;99.90;;;19.34;57.30;102266.25;5006817;28;20374;-76
2021/08/23 05:18:17;;;;;;;2.10;1.00;;;20.90;99.90;;;19.55;58.58;102265.94;5043727;28;20025;-76
2021/08/23 05:20:43;;;;;;;2.35;0.88;;;21.30;99.90;;;19.82;58.00;102258.06;5056978;28;20017;-76
2021/08/23 05:23:09;;;;;;;2.53;1.10;;;22.10;99.90;;;20.75;56.10;102318.19;5018248;28;20033;-76
2021/08/23 05:25:36;;;;;;;2.70;1.00;;;22.60;99.90;;;20.79;56.25;102298.31;5028456;28;20037;-76
2021/08/23 05:28:04;;;;;;;2.20;1.10;;;22.50;99.90;;;20.10;57.38;102237.63;5026989;28;20037;-76
2021/08/23 05:30:30;;;;;;;1.50;0.80;;;22.20;99.90;;;20.35;58.47;102261.03;5021422;28;20048;-76
2021/08/23 05:32:56;;;;;;;2.97;1.15;;;22.60;99.90;;;21.12;56.59;102301.53;5027197;28;20045;-76
2021/08/23 05:35:22;;;;;;;2.08;1.02;;;23.60;99.90;;;22.22;53.44;102353.03;5014542;28;20032;-76
2021/08/23 05:37:51;;;;;;;2.83;1.10;;;24.30;99.90;;;22.67;52.65;102364.13;5045886;28;20017;-76
2021/08/23 05:40:22;;;;;;;4.63;1.30;;;24.90;99.90;;;23.24;51.70;102353.78;5031160;28;20495;-76
2021/08/23 05:42:50;;;;;;;4.03;1.23;;;25.20;99.90;;;23.30;51.15;102490.38;5029549;28;20040;-76
2021/08/23 05:45:17;;;;;;;2.35;1.10;;;24.90;99.90;;;22.63;54.16;102329.56;5029019;28;20021;-76
2021/08/23 05:47:43;;;;;;;2.38;1.15;;;24.50;99.90;;;21.36;56.95;102187.41;5025777;28;20541;-76
2021/08/23 05:50:10;;;;;;;4.40;1.30;;;23.70;99.90;;;20.53;59.51;102123.34;5026585;28;20049;-76
2021/08/23 05:55:15;;;;;;;2.35;0.90;;;21.60;99.90;;;20.14;64.28;102146.41;5060891;27;20387;-77
2021/08/23 05:57:41;;;;;;;6.15;1.05;;;21.90;99.90;;;20.83;62.06;102187.41;5024558;28;20033;-76
2021/08/23 06:00:09;;;;;;;3.38;1.17;;;22.30;99.90;;;21.11;61.75;102201.59;5036312;28;20082;-77
2021/08/23 06:02:35;;;;;;;4.38;1.35;;;22.70;99.90;;;21.35;61.02;102207.09;5018855;28;20036;-76
2021/08/23 06:05:01;;;;;;;2.85;1.00;;;22.40;99.90;;;20.64;63.26;102136.06;5038051;28;20059;-77
2021/08/23 06:07:27;;;;;;;6.43;1.20;;;22.10;99.90;;;20.64;63.59;102141.41;5027134;28;20350;-77
2021/08/23 06:09:53;;;;;;;2.80;1.02;;;21.60;99.90;;;20.25;64.19;102124.31;5027839;28;20525;-77
2021/08/23 06:12:19;;;;;;;3.58;1.08;;;21.80;99.90;;;20.41;63.77;102140.22;5039488;28;20065;-77
2021/08/23 06:14:45;;;;;;;6.80;1.40;;;21.80;99.90;;;20.10;64.79;102103.94;5048299;28;20065;-76
2021/08/23 06:17:11;;;;;;;4.57;1.30;;;21.30;99.90;;;19.75;65.68;102078.53;5056123;28;20101;-77
2021/08/23 06:19:37;;;;;;;3.60;1.20;;;21.00;99.90;;;19.70;66.96;102093.13;5055379;28;20468;-77
2021/08/23 06:22:03;;;;;;;5.43;1.15;;;20.90;99.90;;;19.19;66.98;102053.53;5054513;28;20028;-77
2021/08/23 06:24:29;;;;;;;3.15;1.05;;;20.10;99.90;;;18.31;71.16;101996.56;5065874;28;20116;-76
2021/08/23 06:26:55;;;;;;;4.97;1.08;;;19.60;99.90;;;18.05;71.69;102340.09;5069572;28;20577;-76
2021/08/23 06:29:21;;;;;;;2.47;0.90;;;19.40;99.90;;;18.19;71.87;102270.06;5056305;28;20484;-76
2021/08/23 06:31:47;;;;;;;2.25;0.90;;;19.40;99.90;;;18.44;71.38;102270.47;5056044;28;20032;-76
2021/08/23 06:34:13;;;;;;;4.72;1.15;;;19.50;99.90;;;18.13;70.93;102190.44;5048228;28;20031;-76
2021/08/23 06:36:42;;;;;;;2.88;0.73;;;19.20;99.90;;;17.89;71.39;102142.03;5054762;28;20029;-77
2021/08/23 06:39:08;;;;;;;5.22;1.02;;;19.10;99.90;;;18.03;71.19;102107.44;5057661;28;20499;-76
2021/08/23 06:41:34;;;;;;;6.10;1.13;;;19.30;99.90;;;18.24;69.97;102124.91;5054521;28;20036;-76
2021/08/23 06:44:00;;;;;;;4.25;1.15;;;19.50;99.90;;;18.77;67.78;102165.44;5056839;28;20040;-77
2021/08/23 06:46:26;;;;;;;3.35;1.00;;;20.30;99.90;;;19.81;62.82;102211.78;5065421;28;20119;-76
2021/08/23 06:48:52;;;;;;;3.40;1.10;;;20.80;99.90;;;20.05;61.26;102235.25;5070441;28;20040;-77
2021/08/23 06:51:23;;;;;;;5.20;0.93;;;21.30;99.90;;;20.08;58.74;102187.75;5055301;28;20150;-77
2021/08/23 06:53:51;;;;;;;3.30;0.93;;;21.40;99.90;;;20.11;60.11;102205.47;5056432;28;20039;-76
2021/08/23 06:56:18;;;;;;;5.18;1.00;;;21.90;99.90;;;21.04;57.41;102245.84;5039429;28;20492;-76
2021/08/23 06:58:44;;;;;;;4.05;1.02;;;22.40;99.90;;;21.34;56.52;102240.22;5054526;28;20039;-77
2021/08/23 07:01:10;;;;;;;2.67;0.98;;;22.60;99.90;;;21.54;53.27;102243.38;5056514;28;20025;-78
2021/08/23 07:03:36;;;;;;;5.35;0.80;;;23.20;99.90;;;22.61;52.14;102332.34;5037520;28;20074;-78
2021/08/23 07:06:03;;;;;;;5.28;1.05;;;22.80;99.90;;;20.68;55.17;102153.63;5035721;28;20036;-77
2021/08/23 07:08:29;;;;;;;3.42;0.73;;;22.40;99.90;;;21.13;53.72;102197.00;5041851;28;20479;-77
2021/08/23 07:10:57;;;;;;;5.57;1.20;;;22.20;99.90;;;20.83;54.13;102162.44;5043252;28;20013;-76
2021/08/23 07:13:23;;;;;;;4.93;1.05;;;22.40;99.90;;;21.15;53.57;102200.44;5043243;28;20036;-77
2021/08/23 07:15:49;;;;;;;1.98;0.77;;;22.30;99.90;;;21.28;53.95;102200.47;5040606;28;20025;-77
2021/08/23 07:18:15;;;;;;;2.75;0.82;;;22.00;99.90;;;20.68;56.89;102156.31;5018210;28;20032;-77
2021/08/23 07:20:41;;;;;;;1.70;0.90;;;21.90;99.90;;;20.23;55.39;102110.19;5027269;28;20025;-77
2021/08/23 07:23:09;;;;;;;5.05;1.27;;;21.80;99.90;;;21.21;53.38;102202.69;5040395;28;20123;-78
2021/08/23 07:25:35;;;;;;;3.58;1.00;;;22.30;99.90;;;21.82;50.84;102248.53;5040674;28;20025;-76
2021/08/23 07:28:01;;;;;;;3.45;1.17;;;22.30;99.90;;;21.41;52.44;102204.03;5048028;28;20025;-77
2021/08/23 07:30:28;;;;;;;3.15;1.40;;;22.80;99.90;;;22.38;50.03;102287.56;5044126;28;20099;-78
2021/08/23 07:32:54;;;;;;;3.53;1.10;;;22.70;99.90;;;21.55;50.56;102186.97;5041361;28;20044;-77
2021/08/23 07:35:20;;;;;;;3.55;1.00;;;22.80;99.90;;;22.04;51.42;102247.88;5024759;28;20071;-77
2021/08/23 07:37:48;;;;;;;3.40;1.00;;;22.70;99.90;;;21.55;50.06;102172.72;5038226;28;20036;-79
2021/08/23 07:40:16;;;;;;;5.47;1.23;;;22.10;99.90;;;20.81;52.39;102153.66;5041725;28;20029;-77
2021/08/23 07:42:42;;;;;;;4.45;1.63;;;22.10;99.90;;;21.41;51.54;102195.13;5043893;28;20043;-77
2021/08/23 07:45:10;;;;;;;2.60;1.05;;;22.70;99.90;;;22.07;51.81;102236.06;5031911;28;20049;-77
2021/08/23 07:47:38;;;;;;;2.75;1.05;;;23.50;99.90;;;23.04;49.20;102291.63;5041162;28;20350;-77
2021/08/23 07:50:05;;;;;;;3.47;1.30;;;23.50;99.90;;;22.23;48.06;102209.88;5018993;28;20144;-77
2021/08/23 07:52:31;;;;;;;2.78;1.10;;;23.00;99.90;;;21.78;50.50;102177.31;5026609;28;20255;-77
2021/08/23 07:54:57;;;;;;;4.00;1.17;;;22.90;99.90;;;21.81;49.13;102182.44;5029970;28;20091;-78
2021/08/23 07:57:23;;;;;;;4.30;1.10;;;22.90;99.90;;;21.80;49.31;102164.66;5054631;28;20049;-77
2021/08/23 07:59:49;;;;;;;6.10;1.00;;;22.70;99.90;;;21.78;51.03;102182.69;5047487;28;20507;-77
2021/08/23 08:02:15;;;;;;;2.42;1.10;;;23.00;99.90;;;22.32;49.10;102224.44;5048876;28;20039;-77
2021/08/23 08:04:41;;;;;;;3.40;1.08;;;23.30;99.90;;;22.99;50.55;102261.56;5047765;28;20025;-77
2021/08/23 08:07:07;;;;;;;4.43;0.88;;;23.60;99.90;;;22.45;48.56;102208.31;5042544;28;20029;-77
2021/08/23 08:09:33;;;;;;;3.72;1.40;;;22.50;99.90;;;20.84;51.43;102421.16;5042205;28;20965;-77
2021/08/23 08:11:59;;;;;;;2.08;0.90;;;22.10;99.90;;;20.85;51.86;102251.56;5041770;28;20028;-78
2021/08/23 08:14:25;;;;;;;3.92;1.25;;;21.80;99.90;;;20.84;52.06;102260.53;5044774;28;20037;-78
2021/08/23 08:16:52;;;;;;;6.97;1.00;;;22.00;99.90;;;20.90;51.45;102204.75;5055669;28;20044;-77
2021/08/23 08:19:18;;;;;;;5.15;1.10;;;22.30;99.90;;;21.71;51.50;102267.19;5043263;28;20116;-77
2021/08/23 08:21:44;;;;;;;3.08;1.20;;;23.00;99.90;;;22.67;49.33;102323.88;5042399;28;20104;-77
2021/08/23 08:24:10;;;;;;;3.95;1.05;;;23.30;99.90;;;22.58;49.94;102270.00;5048859;28;20024;-78
2021/08/23 08:26:36;;;;;;;3.15;1.45;;;23.60;99.90;;;22.78;48.46;102290.00;5043964;28;20040;-77
2021/08/23 08:29:02;;;;;;;3.03;1.13;;;23.10;99.90;;;22.50;49.63;102265.19;5036955;28;20039;-77
2021/08/23 08:31:28;;;;;;;2.08;1.20;;;23.40;99.90;;;22.72;48.87;102259.09;5042674;28;20028;-76
2021/08/23 08:33:54;;;;;;;2.45;1.10;;;23.40;99.90;;;23.00;50.87;102283.91;5042956;28;20051;-77
2021/08/23 08:36:21;;;;;;;2.83;1.15;;;23.80;99.90;;;23.21;47.22;102276.94;5039835;28;20037;-77
2021/08/23 08:38:48;;;;;;;4.25;1.27;;;23.90;99.90;;;23.19;47.20;102269.97;5048496;28;20343;-77
2021/08/23 08:41:14;;;;;;;3.25;1.10;;;24.20;99.90;;;22.70;47.89;102202.84;5039064;28;20033;-78
2021/08/23 08:43:40;;;;;;;3.13;1.00;;;23.80;99.90;;;22.55;47.70;102193.25;5048818;28;20533;-77
2021/08/23 08:46:07;;;;;;;6.53;1.38;;;23.10;99.90;;;20.86;50.64;102087.28;5022138;28;20049;-77
2021/08/23 08:48:35;;;;;;;3.05;1.58;;;22.30;99.90;;;20.59;52.03;102079.31;5038457;28;20032;-78
2021/08/23 08:51:02;;;;;;;3.97;1.30;;;22.10;99.90;;;20.92;52.10;102134.19;5041306;28;20036;-77
2021/08/23 08:53:28;;;;;;;4.80;1.73;;;22.30;99.90;;;21.83;51.64;102185.88;5041380;28;20090;-77
2021/08/23 08:55:54;;;;;;;2.80;1.42;;;22.90;99.90;;;22.03;51.45;102178.22;5039050;28;20389;-77
2021/08/23 08:58:26;;;;;;;2.50;1.15;;;22.90;99.90;;;21.58;50.96;102149.25;5041423;28;20041;-77
2021/08/23 09:01:07;;;;;;;4.18;1.30;;;22.50;99.90;;;21.04;51.66;102118.16;5036305;28;20182;-77
2021/08/23 09:03:34;;;;;;;3.92;1.30;;;22.30;99.90;;;21.16;52.05;102127.16;4993680;28;20044;-76
2021/08/23 09:06:08;;;;;;;3.78;1.30;;;22.60;99.90;;;21.43;52.27;102139.63;4997144;28;20044;-77
2021/08/23 09:08:48;;;;;;;5.95;1.20;;;23.00;99.90;;;21.81;52.72;102161.00;5005894;28;20029;-77
2021/08/23 09:11:49;;;;;;;3.95;1.15;;;23.40;99.90;;;22.10;52.23;102169.66;4980805;28;20427;-76
2021/08/23 09:15:02;;;;;;;6.32;1.27;;;23.20;99.90;;;21.50;50.46;102114.94;4997226;28;20115;-77
2021/08/23 09:18:33;;;;;;;1.83;0.90;;;22.50;99.90;;;21.14;53.98;102091.56;5004232;28;20402;-77
2021/08/23 09:21:41;;;;;;;2.92;1.25;;;22.40;99.90;;;21.28;54.23;102104.03;5002310;28;20108;-77
2021/08/23 09:25:21;;;;;;;1.83;0.95;;;22.40;99.90;;;21.00;54.38;102084.50;4998647;28;20050;-76
2021/08/23 09:28:23;;;;;;;4.53;1.02;;;21.90;99.90;;;21.02;55.13;102077.22;4992812;28;20024;-76
2021/08/23 09:31:35;;;;;;;2.05;0.98;;;22.10;99.90;;;20.93;56.29;102077.88;4991032;28;20056;-76
2021/08/23 09:35:23;;;;;;;2.22;1.13;;;22.00;99.90;;;20.07;54.29;102033.66;5001272;28;20396;-76
2021/08/23 09:38:40;;;;;;;3.08;0.98;;;21.50;99.90;;;20.02;56.33;102014.41;5009631;28;20040;-76
2021/08/23 09:45:55;;;;;;;1.90;0.90;;;21.00;99.90;;;19.75;56.46;102025.06;5001253;28;20082;-77
2021/08/23 09:49:27;;;;;;;6.00;1.17;;;21.20;99.90;;;20.39;57.66;102072.59;5001261;28;20056;-77
2021/08/23 09:52:35;;;;;;;1.88;1.05;;;21.50;99.90;;;20.66;56.64;102094.84;4993705;28;20186;-76
2021/08/23 09:55:53;;;;;;;10.15;1.00;;;22.00;99.90;;;21.53;53.87;102265.78;4992194;28;20116;-76
2021/08/23 09:58:45;;;;;;;6.28;1.10;;;22.30;99.90;;;21.84;54.26;102264.53;4998136;28;20505;-76
2021/08/23 10:01:49;;;;;;;2.13;0.90;;;22.50;99.90;;;21.39;54.27;102149.66;4994086;28;21088;-76
2021/08/23 10:05:15;;;;;;;2.03;0.95;;;22.40;99.90;;;21.18;55.17;102151.16;5002906;28;20365;-76
2021/08/23 10:08:45;;;;;;;3.60;1.10;;;22.30;99.90;;;21.58;53.81;102149.25;4992611;28;24938;-76
2021/08/23 10:12:10;;;;;;;2.58;1.02;;;22.20;99.90;;;20.91;52.78;102085.16;4997040;28;20048;-77
2021/08/23 10:14:59;;;;;;;12.90;1.02;;;21.00;99.90;;;19.67;55.75;102054.94;4999946;28;20055;-76
2021/08/23 10:18:02;;;;;;;5.22;1.10;;;21.00;99.90;;;19.77;56.02;102068.59;4980288;28;20047;-76
2021/08/23 10:21:08;;;;;;;12.07;1.20;;;21.00;99.90;;;20.27;56.30;102115.25;4992551;28;21192;-76
2021/08/23 10:23:37;;;;;;;6.85;2.00;;;21.20;99.90;;;20.18;56.94;102081.09;5003256;28;20124;-76
2021/08/23 10:26:12;;;;;;;1.77;1.00;;;21.20;99.90;;;20.03;54.73;102066.06;4994385;28;20136;-76
2021/08/23 10:29:20;;;;;;;1.55;0.90;;;21.40;99.90;;;20.57;54.20;102118.69;4990655;28;20044;-76
2021/08/23 10:32:15;;;;;;;;;;;21.50;99.90;;;19.80;56.43;102032.78;4998224;28;20044;-76
2021/08/23 10:34:42;;;;;;;2.38;1.08;;;20.90;99.90;;;19.87;55.96;102051.03;5024548;28;19923;-77
2021/08/23 10:37:27;;;;;;;7.88;1.02;;;21.00;99.90;;;20.34;57.55;102096.97;5037152;28;20052;-76